Time;durP1;ratioP1;P1;durP2;ratioP2;P2;SDS_P1;SDS_P2;PMS_P1;PMS_P2;Temp;Humidity;BMP_temperature;BMP_pressure;BME280_temperature;BME280_humidity;BME280_pressure;Samples;Min_cycle;Max_cycle;Signal;HPM_P1;HPM_P2
2023/03/21 00:01:07;;;;;;;21.67;16.47;;;9.20;99.90;;;-141.84;76.03;19494.78;5070214;28;20216;-60
2023/03/21 00:03:36;;;;;;;22.70;16.47;;;9.20;99.90;;;-141.84;75.98;19486.66;5070894;28;20653;-60
2023/03/21 00:06:13;;;;;;;20.40;16.33;;;9.20;99.90;;;-141.84;75.79;19470.38;5065293;28;20647;-61
2023/03/21 00:08:41;;;;;;;20.87;16.03;;;9.20;99.90;;;-141.84;74.96;19492.75;5069495;28;20579;-60
2023/03/21 00:11:14;;;;;;;20.40;15.47;;;9.20;99.90;;;-141.84;75.02;19486.66;5073366;28;20220;-61
2023/03/21 00:13:43;;;;;;;18.30;14.73;;;9.20;99.90;;;-141.84;75.40;19478.50;5073393;28;20726;-61
2023/03/21 00:16:15;;;;;;;17.93;15.00;;;9.20;99.90;;;-141.84;75.46;19496.81;5052352;28;20233;-62
2023/03/21 00:18:57;;;;;;;19.70;15.60;;;9.20;99.90;;;-141.84;73.80;19488.69;5050919;28;20286;-60
2023/03/21 00:21:31;;;;;;;18.93;15.63;;;9.20;99.90;;;-141.84;74.08;19509.00;5056714;28;20311;-60
2023/03/21 00:24:20;;;;;;;17.93;14.07;;;9.20;99.90;;;-141.84;73.50;19470.38;5070960;28;20205;-60
2023/03/21 00:26:49;;;;;;;18.60;15.00;;;9.20;99.90;;;-141.84;73.71;19472.41;5071355;28;20217;-59
2023/03/21 00:29:17;;;;;;;16.07;14.23;;;9.20;99.90;;;-141.84;73.84;19468.34;5070787;28;20228;-60
2023/03/21 00:31:46;;;;;;;18.17;14.13;;;9.20;99.90;;;-141.84;74.08;19492.75;5070677;28;20238;-62
2023/03/21 00:34:14;;;;;;;17.80;14.80;;;9.20;99.90;;;-141.84;74.15;19509.00;5071146;28;20315;-60
2023/03/21 00:36:45;;;;;;;18.37;14.63;;;9.20;99.90;;;-141.84;74.45;19484.59;5070659;28;20890;-60
2023/03/21 00:39:14;;;;;;;17.90;15.17;;;9.20;99.90;;;-141.84;73.87;19462.25;5071350;28;20260;-60
2023/03/21 00:41:42;;;;;;;16.43;13.67;;;9.20;99.90;;;-141.84;72.77;19504.94;5070396;28;20235;-61
2023/03/21 00:44:14;;;;;;;15.07;12.57;;;9.20;99.90;;;-141.84;72.15;19492.75;5070853;28;20274;-61
2023/03/21 00:46:43;;;;;;;13.30;11.57;;;9.20;99.90;;;-141.84;71.95;19478.50;5070232;28;20227;-60
2023/03/21 00:49:33;;;;;;;16.77;12.87;;;9.20;99.90;;;-141.84;72.04;19476.47;5070511;28;20315;-60
2023/03/21 00:52:06;;;;;;;16.00;12.67;;;9.20;99.90;;;-141.84;71.90;19478.50;5070182;28;20589;-59
2023/03/21 00:54:54;;;;;;;15.43;12.07;;;9.20;99.90;;;-141.84;70.55;19553.72;5070236;28;20224;-61
2023/03/21 00:57:22;;;;;;;12.93;11.33;;;9.30;99.90;;;-141.84;71.97;19521.19;5070340;28;20197;-61
2023/03/21 01:00:08;;;;;;;13.23;11.77;;;9.20;99.90;;;-141.84;73.14;19535.41;5070849;28;20426;-61
2023/03/21 01:02:41;;;;;;;11.47;9.17;;;9.20;99.90;;;-141.84;73.25;19462.25;5070250;28;20238;-60
2023/03/21 01:05:22;;;;;;;11.30;9.53;;;9.10;99.90;;;-141.84;74.06;19492.75;5070090;28;20225;-61
2023/03/21 01:08:01;;;;;;;12.70;8.80;;;9.00;99.90;;;-141.84;74.43;19456.16;5070216;28;20739;-61
2023/03/21 01:10:40;;;;;;;9.83;8.50;;;9.00;99.90;;;-141.84;75.69;19439.91;5069851;28;20315;-61
2023/03/21 01:13:10;;;;;;;10.50;8.77;;;8.90;99.90;;;-141.84;76.62;19448.03;5070112;28;20221;-61
2023/03/21 01:15:45;;;;;;;11.33;9.10;;;8.80;99.90;;;-141.84;77.21;19464.28;5070115;28;20718;-60
2023/03/21 01:18:15;;;;;;;10.73;9.40;;;8.70;99.90;;;-141.84;78.08;19423.66;5072614;28;20351;-59
2023/03/21 01:20:46;;;;;;;11.93;9.47;;;8.70;99.90;;;-141.84;79.19;19395.19;5071725;28;20232;-61
2023/03/21 01:23:16;;;;;;;12.60;10.00;;;8.60;99.90;;;-141.84;79.82;19391.13;5072262;28;20228;-60
2023/03/21 01:25:47;;;;;;;10.67;9.47;;;8.50;99.90;;;-141.84;80.38;19411.44;5071811;28;20239;-60
2023/03/21 01:28:16;;;;;;;12.70;9.87;;;8.50;99.90;;;-141.84;80.08;19372.84;5073266;28;20236;-61
2023/03/21 01:30:49;;;;;;;14.33;10.87;;;8.40;99.90;;;-141.84;81.09;19346.44;5072349;28;20228;-60
2023/03/21 01:33:18;;;;;;;12.53;9.63;;;8.30;99.90;;;-141.84;81.50;19385.03;5072994;28;20193;-60
2023/03/21 01:35:46;;;;;;;14.57;10.20;;;8.30;99.90;;;-141.84;82.00;19374.88;5072497;28;20572;-59
2023/03/21 01:38:26;;;;;;;11.50;10.03;;;8.30;99.90;;;-141.84;82.34;19378.94;5069005;28;20259;-62
2023/03/21 01:40:54;;;;;;;14.97;9.60;;;8.20;99.90;;;-141.84;82.17;19362.69;5071814;28;20220;-60
2023/03/21 01:43:27;;;;;;;12.37;9.77;;;8.20;99.90;;;-141.84;82.51;19354.56;5072004;28;20582;-59
2023/03/21 01:46:25;;;;;;;12.43;9.47;;;8.20;99.90;;;-141.84;83.17;19358.63;5071773;28;20235;-61
2023/03/21 01:49:01;;;;;;;13.67;9.70;;;8.20;99.90;;;-141.84;83.37;19336.25;5072030;28;20263;-60
2023/03/21 01:51:32;;;;;;;12.93;10.10;;;8.20;99.90;;;-141.84;83.72;19366.75;5071740;28;20185;-60
2023/03/21 01:54:04;;;;;;;13.73;10.10;;;8.20;99.90;;;-141.84;83.19;19376.91;5072124;28;20189;-59
2023/03/21 01:56:35;;;;;;;13.87;10.40;;;8.20;99.90;;;-141.84;83.70;19340.31;5071316;28;20236;-60
2023/03/21 01:59:11;;;;;;;13.60;10.60;;;8.20;99.90;;;-141.84;83.05;19358.63;5071567;28;20247;-60
2023/03/21 02:01:41;;;;;;;12.00;10.27;;;8.20;99.90;;;-141.84;82.50;19389.09;5071584;28;20234;-60
2023/03/21 02:04:11;;;;;;;12.50;9.67;;;8.20;99.90;;;-141.84;82.29;19350.50;5071573;28;20229;-60
2023/03/21 02:06:49;;;;;;;13.13;9.87;;;8.20;99.90;;;-141.84;82.76;19380.97;5071127;28;20712;-60
2023/03/21 02:09:23;;;;;;;11.03;9.00;;;8.20;99.90;;;-141.84;83.20;19364.72;5072183;28;20196;-60
2023/03/21 02:11:55;;;;;;;11.13;9.80;;;8.30;99.90;;;-141.84;82.56;19397.22;5071662;28;20205;-60
2023/03/21 02:14:23;;;;;;;13.17;10.23;;;8.30;99.90;;;-141.84;81.98;19401.28;5071351;28;20227;-59
2023/03/21 02:17:09;;;;;;;12.17;9.50;;;8.30;99.90;;;-141.84;82.30;19387.06;5071080;28;20228;-60
2023/03/21 02:20:24;;;;;;;11.83;10.33;;;8.30;99.90;;;-141.84;82.42;19378.94;5070987;28;20712;-60
2023/03/21 02:23:38;;;;;;;11.13;9.03;;;8.30;99.90;;;-141.84;82.62;19320.00;5050677;28;20587;-60
2023/03/21 02:26:46;;;;;;;12.93;9.40;;;8.30;99.90;;;-141.84;83.27;19334.22;5034100;28;20654;-60
2023/03/21 02:30:13;;;;;;;9.13;8.17;;;8.20;99.90;;;-141.84;83.26;19360.66;5050861;28;20233;-61
2023/03/21 02:33:19;;;;;;;11.80;8.53;;;8.20;99.90;;;-141.84;83.27;19334.22;5050809;28;20567;-60
2023/03/21 02:36:25;;;;;;;11.53;8.43;;;8.20;99.90;;;-141.84;82.79;19378.94;5051166;28;20201;-61
2023/03/21 02:39:06;;;;;;;12.17;8.97;;;8.20;99.90;;;-141.84;82.37;19358.63;5050684;28;20217;-60
2023/03/21 02:41:48;;;;;;;8.77;7.87;;;8.20;99.90;;;-141.84;82.31;19372.84;5050449;28;20256;-60
2023/03/21 02:44:26;;;;;;;11.50;8.07;;;8.30;99.90;;;-141.84;82.46;19358.63;5050938;28;20229;-60
2023/03/21 02:47:02;;;;;;;13.47;8.23;;;8.30;99.90;;;-141.84;82.99;19374.88;5067313;28;20521;-60
2023/03/21 02:49:42;;;;;;;10.17;8.10;;;8.30;99.90;;;-141.84;83.47;19342.34;5052376;28;20249;-61
2023/03/21 02:52:16;;;;;;;9.80;7.53;;;8.20;99.90;;;-141.84;83.34;19370.81;5047429;28;20265;-61
2023/03/21 02:55:12;;;;;;;10.60;7.80;;;8.20;99.90;;;-141.84;82.42;19342.34;5048598;28;20244;-61
2023/03/21 02:57:44;;;;;;;9.27;7.50;;;8.20;99.90;;;-141.84;81.84;19364.72;5050513;28;20294;-60
2023/03/21 03:00:20;;;;;;;11.70;7.63;;;8.20;99.90;;;-141.84;81.83;19360.66;5050967;28;20248;-60
2023/03/21 03:02:49;;;;;;;8.40;7.20;;;8.30;99.90;;;-141.84;81.86;19366.75;5050539;28;20661;-60
2023/03/21 03:05:43;;;;;;;9.63;7.20;;;8.30;99.90;;;-141.84;81.61;19370.81;5050118;28;20312;-61
2023/03/21 03:08:32;;;;;;;11.60;8.13;;;8.40;99.90;;;-141.84;81.87;19366.75;5050080;28;20221;-60
2023/03/21 03:11:28;;;;;;;11.53;7.60;;;8.30;99.90;;;-141.84;81.96;19385.03;5030036;28;20308;-62
2023/03/21 03:14:32;;;;;;;10.60;7.10;;;8.30;99.90;;;-141.84;81.85;19366.75;5030000;28;20222;-61
2023/03/21 03:17:39;;;;;;;9.67;7.37;;;8.30;99.90;;;-141.84;82.07;19403.31;5030358;28;20339;-60
2023/03/21 03:20:25;;;;;;;9.67;7.97;;;8.30;99.90;;;-141.84;81.77;19358.63;5030155;28;20229;-61
2023/03/21 03:23:05;;;;;;;9.20;7.43;;;8.30;99.90;;;-141.84;81.06;19397.22;5047880;28;20592;-60
2023/03/21 03:25:42;;;;;;;10.03;6.83;;;8.30;99.90;;;-141.84;81.03;19380.97;5050043;28;20232;-61
2023/03/21 03:28:16;;;;;;;9.77;6.77;;;8.30;99.90;;;-141.84;81.04;19380.97;5049829;28;20803;-61
2023/03/21 03:30:47;;;;;;;11.67;7.00;;;8.30;99.90;;;-141.84;81.52;19372.84;5045648;28;20685;-61
2023/03/21 03:33:40;;;;;;;8.57;7.37;;;8.30;99.90;;;-141.84;81.13;19358.63;5049694;28;20288;-60
2023/03/21 03:36:13;;;;;;;8.50;7.23;;;8.30;99.90;;;-141.84;81.15;19362.69;5050493;28;20182;-61
2023/03/21 03:39:00;;;;;;;10.13;7.47;;;8.30;99.90;;;-141.84;80.96;19374.88;5051812;28;20247;-61
2023/03/21 03:41:28;;;;;;;9.70;7.13;;;8.30;99.90;;;-141.84;80.50;19366.75;5053753;28;20724;-61
2023/03/21 03:44:18;;;;;;;9.43;7.00;;;8.30;99.90;;;-141.84;79.88;19393.16;5054053;28;20252;-59
2023/03/21 03:46:56;;;;;;;11.03;7.07;;;8.30;99.90;;;-141.84;80.11;19346.44;5054172;28;20233;-60
2023/03/21 03:49:30;;;;;;;8.60;6.80;;;8.30;99.90;;;-141.84;80.13;19370.81;5053871;28;20717;-61
2023/03/21 03:52:05;;;;;;;10.00;6.53;;;8.30;99.90;;;-141.84;79.68;19376.91;5053890;28;20224;-61
2023/03/21 03:54:38;;;;;;;12.20;6.43;;;8.30;99.90;;;-141.84;80.46;19356.59;5053894;28;20185;-59
2023/03/21 03:57:08;;;;;;;8.97;6.37;;;8.30;99.90;;;-141.84;79.64;19411.44;5054501;28;20200;-60
2023/03/21 03:59:39;;;;;;;9.30;6.10;;;8.30;99.90;;;-141.84;79.91;19366.75;5053534;28;20233;-61
2023/03/21 04:02:07;;;;;;;7.43;6.33;;;8.30;99.90;;;-141.84;80.00;19385.03;5053334;28;20225;-59
2023/03/21 04:04:37;;;;;;;6.63;5.93;;;8.30;99.90;;;-141.84;80.01;19358.63;5053480;28;20257;-60
2023/03/21 04:07:06;;;;;;;7.17;6.47;;;8.30;99.90;;;-141.84;80.25;19411.44;5053887;28;20236;-59
2023/03/21 04:09:35;;;;;;;8.70;6.50;;;8.30;99.90;;;-141.84;79.24;19391.13;5053473;28;20201;-59
2023/03/21 04:12:12;;;;;;;8.07;6.77;;;8.30;99.90;;;-141.84;79.19;19383.00;5054225;28;20186;-61
2023/03/21 04:14:42;;;;;;;10.23;6.73;;;8.30;99.90;;;-141.84;78.93;19411.44;5053454;28;20229;-61
2023/03/21 04:17:15;;;;;;;7.77;6.63;;;8.40;99.90;;;-141.84;79.17;19378.94;5053289;28;20233;-60
2023/03/21 04:19:44;;;;;;;8.27;6.20;;;8.30;99.90;;;-141.84;78.87;19405.34;5053195;28;20256;-61
2023/03/21 04:22:13;;;;;;;8.23;6.27;;;8.40;99.90;;;-141.84;78.69;19395.19;5067530;28;20251;-60
2023/03/21 04:24:41;;;;;;;7.80;6.17;;;8.40;99.90;;;-141.84;78.01;19399.25;5073207;28;20228;-59
2023/03/21 04:27:09;;;;;;;8.70;6.50;;;8.40;99.90;;;-141.84;78.71;19368.78;5074111;28;20210;-59
2023/03/21 04:29:38;;;;;;;9.00;6.83;;;8.40;99.90;;;-141.84;78.90;19405.34;5072897;28;20299;-60
2023/03/21 04:32:18;;;;;;;11.20;6.77;;;8.30;99.90;;;-141.84;79.08;19374.88;5073210;28;20225;-59
2023/03/21 04:34:48;;;;;;;8.97;6.90;;;8.30;99.90;;;-141.84;79.32;19374.88;5072766;28;20384;-60
2023/03/21 04:37:18;;;;;;;8.73;7.10;;;8.30;99.90;;;-141.84;78.99;19358.63;5073018;28;20320;-61
2023/03/21 04:39:46;;;;;;;9.73;6.50;;;8.30;99.90;;;-141.84;79.01;19407.38;5072660;28;20228;-60
2023/03/21 04:42:17;;;;;;;10.27;6.17;;;8.30;99.90;;;-141.84;79.24;19362.69;5073475;28;20403;-60
2023/03/21 04:44:46;;;;;;;8.60;6.87;;;8.30;99.90;;;-141.84;78.64;19370.81;5072615;28;20216;-61
2023/03/21 04:47:19;;;;;;;7.73;5.70;;;8.30;99.90;;;-141.84;77.99;19411.44;5072630;28;20233;-62
2023/03/21 04:49:47;;;;;;;10.63;6.50;;;8.30;99.90;;;-141.84;78.22;19423.66;5071610;28;20229;-59
2023/03/21 04:52:16;;;;;;;9.17;6.83;;;8.40;99.90;;;-141.84;77.81;19389.09;5072470;28;20268;-60
2023/03/21 04:54:44;;;;;;;10.20;6.53;;;8.40;99.90;;;-141.84;78.37;19374.88;5072587;28;20224;-61
2023/03/21 04:57:13;;;;;;;9.07;7.10;;;8.40;99.90;;;-141.84;78.38;19387.06;5073220;28;20200;-60
2023/03/21 04:59:41;;;;;;;8.33;6.40;;;8.40;99.90;;;-141.84;78.89;19383.00;5072312;28;20233;-60
2023/03/21 05:02:10;;;;;;;10.30;6.47;;;8.40;99.90;;;-141.84;78.95;19399.25;5072276;28;20231;-62
2023/03/21 05:04:40;;;;;;;9.93;6.63;;;8.40;99.90;;;-141.84;79.08;19391.13;5072333;28;20314;-58
2023/03/21 05:07:08;;;;;;;10.67;7.00;;;8.40;99.90;;;-141.84;78.35;19423.66;5072265;28;20737;-61
2023/03/21 05:09:36;;;;;;;10.37;7.07;;;8.40;99.90;;;-141.84;78.06;19407.38;5072061;28;20588;-60
2023/03/21 05:12:05;;;;;;;9.20;7.23;;;8.40;99.90;;;-141.84;77.24;19423.66;5072919;28;20201;-60
2023/03/21 05:14:33;;;;;;;8.30;6.60;;;8.50;99.90;;;-141.84;77.70;19407.38;5072147;28;20231;-61
2023/03/21 05:17:03;;;;;;;9.60;6.83;;;8.50;99.90;;;-141.84;78.29;19407.38;5072390;28;20224;-61
2023/03/21 05:19:34;;;;;;;10.00;7.13;;;8.50;99.90;;;-141.84;78.34;19387.06;5072399;28;20605;-61
2023/03/21 05:22:08;;;;;;;9.37;7.33;;;8.50;99.90;;;-141.84;77.99;19401.28;5071485;28;20220;-60
2023/03/21 05:24:40;;;;;;;10.00;7.70;;;8.50;99.90;;;-141.84;78.25;19407.38;5072314;28;20189;-59
2023/03/21 05:27:08;;;;;;;9.03;6.83;;;8.50;99.90;;;-141.84;77.95;19439.91;5072738;28;20185;-59
2023/03/21 05:29:37;;;;;;;7.90;6.20;;;8.60;99.90;;;-141.84;77.93;19437.88;5072045;28;20232;-60
2023/03/21 05:32:05;;;;;;;10.70;6.47;;;8.60;99.90;;;-141.84;77.30;19435.84;5072794;28;20244;-62
2023/03/21 05:34:33;;;;;;;7.40;6.60;;;8.60;99.90;;;-141.84;77.25;19429.75;5072283;28;20290;-61
2023/03/21 05:37:01;;;;;;;8.17;6.37;;;8.60;99.90;;;-141.84;77.23;19407.38;5071907;28;20243;-60
2023/03/21 05:39:31;;;;;;;9.90;6.20;;;8.60;99.90;;;-141.84;77.03;19421.63;5071939;28;20209;-61
2023/03/21 05:41:59;;;;;;;8.23;6.50;;;8.60;99.90;;;-141.84;77.15;19425.69;5052272;28;20231;-60
2023/03/21 05:44:27;;;;;;;7.53;6.13;;;8.60;99.90;;;-141.84;77.06;19439.91;5051569;28;20225;-59
2023/03/21 05:46:55;;;;;;;7.27;6.10;;;8.70;99.90;;;-141.84;76.30;19401.28;5051704;28;20232;-60
2023/03/21 05:49:23;;;;;;;9.53;6.30;;;8.70;99.90;;;-141.84;75.58;19464.28;5051904;28;20574;-60
2023/03/21 05:51:52;;;;;;;8.43;6.10;;;8.70;99.90;;;-141.84;75.50;19443.97;5051451;28;20225;-60
2023/03/21 05:54:20;;;;;;;9.37;6.13;;;8.80;99.90;;;-141.84;76.14;19462.25;5072383;28;20208;-60
2023/03/21 05:56:49;;;;;;;7.87;6.47;;;8.80;99.90;;;-141.84;76.36;19429.75;5071525;28;20221;-60
2023/03/21 05:59:17;;;;;;;8.10;6.20;;;8.80;99.90;;;-141.84;76.07;19462.25;5071563;28;20755;-60
2023/03/21 06:01:46;;;;;;;9.17;5.73;;;8.80;99.90;;;-141.84;76.49;19450.06;5071224;28;20235;-60
2023/03/21 06:04:14;;;;;;;8.60;6.33;;;8.90;99.90;;;-141.84;76.28;19437.88;5071219;28;20239;-61
2023/03/21 06:06:42;;;;;;;9.23;6.33;;;8.90;99.90;;;-141.84;76.24;19441.94;5071253;28;20225;-60
2023/03/21 06:09:11;;;;;;;8.23;5.80;;;8.90;99.90;;;-141.84;75.27;19454.13;5071479;28;20205;-61
2023/03/21 06:11:46;;;;;;;9.43;6.03;;;8.90;99.90;;;-141.84;74.84;19468.34;5070901;28;20228;-59
2023/03/21 06:14:16;;;;;;;8.57;6.83;;;8.90;99.90;;;-141.84;75.14;19443.97;5071366;28;20657;-59
2023/03/21 06:16:45;;;;;;;8.33;5.83;;;8.90;99.90;;;-141.84;75.43;19437.88;5071294;28;20235;-59
2023/03/21 06:19:13;;;;;;;9.27;5.77;;;9.00;99.90;;;-141.84;74.91;19470.38;5071195;28;20224;-60
2023/03/21 06:21:41;;;;;;;7.63;6.13;;;9.00;99.90;;;-141.84;74.73;19496.81;5071056;28;20240;-60
2023/03/21 06:24:10;;;;;;;7.57;4.93;;;9.20;99.90;;;-141.84;74.24;19517.13;5071646;28;20207;-61
2023/03/21 06:26:38;;;;;;;9.40;6.27;;;9.30;99.90;;;-141.84;74.57;19484.59;5070616;28;20232;-61
2023/03/21 06:29:06;;;;;;;10.23;6.17;;;9.30;99.90;;;-141.84;74.27;19541.50;5071200;28;20227;-62
2023/03/21 06:31:35;;;;;;;8.67;5.83;;;9.40;99.90;;;-141.84;72.85;19553.72;5070761;28;20467;-62
2023/03/21 06:34:04;;;;;;;8.33;6.17;;;9.50;99.90;;;-141.84;72.01;19521.19;5070828;28;20220;-62
2023/03/21 06:36:33;;;;;;;11.70;6.00;;;9.50;99.90;;;-141.84;72.18;19511.03;5070461;28;20254;-63
2023/03/21 06:39:01;;;;;;;8.87;5.53;;;9.60;99.90;;;-141.84;71.60;19559.81;5071125;28;20281;-64
2023/03/21 06:41:29;;;;;;;8.63;5.73;;;9.60;99.90;;;-141.84;71.27;19539.47;5070308;28;20225;-63
2023/03/21 06:43:57;;;;;;;6.50;5.37;;;9.70;99.90;;;-141.84;69.44;19598.41;5070589;28;20224;-62
2023/03/21 06:46:25;;;;;;;8.43;5.27;;;9.80;99.90;;;-141.84;70.57;19557.78;5070601;28;20571;-63
2023/03/21 06:48:55;;;;;;;9.80;5.70;;;9.80;99.90;;;-141.84;70.88;19596.38;5070236;28;20224;-64
2023/03/21 06:51:23;;;;;;;7.77;4.67;;;9.80;99.90;;;-141.84;71.22;19523.22;5069516;28;20204;-63
2023/03/21 06:53:51;;;;;;;6.37;4.83;;;9.70;99.90;;;-141.84;70.69;19541.50;5070798;28;20205;-62
2023/03/21 06:56:20;;;;;;;5.27;4.60;;;9.70;99.90;;;-141.84;70.23;19578.09;5070172;28;20225;-63
2023/03/21 06:58:48;;;;;;;9.97;6.30;;;9.70;99.90;;;-141.84;70.76;19537.44;5070434;28;20232;-63
2023/03/21 07:01:16;;;;;;;6.20;4.63;;;9.70;99.90;;;-141.84;70.57;19567.94;5069815;28;20228;-63
2023/03/21 07:03:45;;;;;;;9.50;5.00;;;9.70;99.90;;;-141.84;69.75;19576.06;5069043;28;20228;-63
2023/03/21 07:06:15;;;;;;;5.50;4.47;;;9.70;99.90;;;-141.84;70.18;19549.63;5070974;28;20307;-63
2023/03/21 07:08:43;;;;;;;9.70;5.00;;;9.70;99.90;;;-141.84;68.82;19580.13;5069390;28;20596;-63
2023/03/21 07:11:11;;;;;;;6.80;4.10;;;9.80;99.90;;;-141.84;69.49;19602.47;5069993;28;20715;-62
2023/03/21 07:13:40;;;;;;;7.27;4.40;;;9.90;99.90;;;-141.84;68.57;19608.56;5069428;28;20232;-63
2023/03/21 07:16:09;;;;;;;6.20;4.30;;;10.00;99.90;;;-141.84;67.82;19616.72;5069764;28;20615;-63
2023/03/21 07:18:38;;;;;;;9.40;4.20;;;10.10;99.90;;;-141.84;67.43;19641.09;5070051;28;20236;-63
2023/03/21 07:21:07;;;;;;;10.43;6.30;;;10.30;99.90;;;-141.84;67.65;19606.53;5070523;28;20232;-62
2023/03/21 07:23:38;;;;;;;7.70;4.50;;;10.30;99.90;;;-141.84;67.06;19665.47;5070046;28;20235;-62
2023/03/21 07:26:07;;;;;;;6.13;3.83;;;10.40;99.90;;;-141.84;66.54;19671.56;5069948;28;20232;-62
2023/03/21 07:28:35;;;;;;;7.27;4.40;;;10.50;99.90;;;-141.84;67.11;19667.50;5070233;28;20236;-63
2023/03/21 07:31:07;;;;;;;6.80;4.20;;;10.40;99.90;;;-141.84;67.38;19663.44;5069984;28;20248;-62
2023/03/21 07:33:35;;;;;;;8.67;4.37;;;10.40;99.90;;;-141.84;67.30;19659.38;5069952;28;20218;-62
2023/03/21 07:36:04;;;;;;;6.20;3.97;;;10.30;99.90;;;-141.84;65.79;19708.16;5070360;28;20668;-62
2023/03/21 07:38:32;;;;;;;6.90;4.53;;;10.60;99.90;;;-141.84;65.60;19756.94;5070008;28;20278;-65
2023/03/21 07:41:01;;;;;;;4.83;3.97;;;10.80;99.90;;;-141.84;64.25;19761.00;5069785;28;20715;-61
2023/03/21 07:43:30;;;;;;;7.20;4.60;;;11.00;99.90;;;-141.84;64.59;19787.41;5069893;28;20228;-62
2023/03/21 07:45:59;;;;;;;6.47;5.00;;;11.10;99.90;;;-141.84;63.97;19815.88;5069649;28;20221;-63
2023/03/21 07:48:29;;;;;;;9.97;4.40;;;11.20;99.90;;;-141.84;63.59;19785.38;5069934;28;20207;-62
2023/03/21 07:50:57;;;;;;;6.43;4.60;;;11.20;99.90;;;-141.84;63.55;19809.78;5070524;28;20573;-63
2023/03/21 07:53:25;;;;;;;6.00;3.90;;;11.30;99.90;;;-141.84;63.26;19805.72;5069274;28;20231;-62
2023/03/21 07:55:55;;;;;;;8.03;4.57;;;11.40;99.90;;;-141.84;63.38;19836.19;5068360;28;20323;-62
2023/03/21 07:58:26;;;;;;;6.33;4.20;;;11.30;99.90;;;-141.84;63.56;19815.88;5069736;28;20285;-62
2023/03/21 08:00:55;;;;;;;9.07;4.27;;;11.40;99.90;;;-141.84;63.44;19763.03;5069750;28;20231;-63
2023/03/21 08:03:25;;;;;;;7.40;3.97;;;11.40;99.90;;;-141.84;63.23;19824.00;5067536;28;20730;-63
2023/03/21 08:05:53;;;;;;;5.73;4.33;;;11.50;99.90;;;-141.84;62.51;19838.22;5070038;28;20204;-63
2023/03/21 08:08:21;;;;;;;9.27;4.37;;;11.50;99.90;;;-141.84;61.95;19868.72;5069265;28;20229;-62
2023/03/21 08:10:49;;;;;;;7.70;4.47;;;11.60;99.90;;;-141.84;62.63;19866.69;5069269;28;20217;-62
2023/03/21 08:13:17;;;;;;;6.10;3.70;;;11.60;99.90;;;-141.84;61.40;19838.22;5069461;28;20323;-62
2023/03/21 08:15:47;;;;;;;4.33;3.60;;;11.70;99.90;;;-141.84;61.45;19878.88;5069572;28;20224;-63
2023/03/21 08:18:15;;;;;;;6.23;4.43;;;11.60;99.90;;;-141.84;61.13;19856.53;5069806;28;20211;-62
2023/03/21 08:20:43;;;;;;;6.33;3.80;;;11.70;99.90;;;-141.84;60.90;19901.22;5069364;28;20756;-62
2023/03/21 08:23:12;;;;;;;7.95;4.13;;;11.90;99.90;;;-141.84;60.46;19895.13;5069078;28;20252;-62
2023/03/21 08:25:40;;;;;;;8.53;3.77;;;11.90;99.90;;;-141.84;60.89;19905.28;5072192;28;20220;-61
2023/03/21 08:28:08;;;;;;;6.27;4.37;;;12.00;99.90;;;-141.84;60.00;19974.41;5073338;28;20225;-63
2023/03/21 08:30:38;;;;;;;6.75;4.00;;;12.10;99.90;;;-141.84;59.49;19962.19;5073147;28;20201;-64
2023/03/21 08:33:08;;;;;;;6.60;4.15;;;12.30;99.90;;;-141.84;59.62;19968.31;5073832;28;20196;-62
2023/03/21 08:35:36;;;;;;;5.23;3.70;;;12.30;99.90;;;-141.84;59.08;19972.38;5073152;28;20221;-62
2023/03/21 08:38:08;;;;;;;6.18;4.38;;;12.40;99.90;;;-141.84;60.23;19943.91;5072873;28;20259;-63
2023/03/21 08:40:37;;;;;;;7.93;4.85;;;12.20;99.90;;;-141.84;60.48;19915.47;5072725;28;20224;-63
2023/03/21 08:43:05;;;;;;;8.48;4.60;;;12.00;99.90;;;-141.84;60.42;19947.97;5072768;28;20224;-63
2023/03/21 08:45:34;;;;;;;7.82;4.13;;;12.10;99.90;;;-141.84;60.01;19950.00;5073195;28;20208;-63
2023/03/21 08:48:02;;;;;;;7.45;4.05;;;12.10;99.90;;;-141.84;59.36;20023.19;5073615;28;20205;-62
2023/03/21 08:50:32;;;;;;;5.10;4.00;;;12.30;99.90;;;-141.84;57.77;20010.97;5072926;28;20232;-64
2023/03/21 08:53:00;;;;;;;7.28;4.28;;;12.50;99.90;;;-141.84;57.94;20057.72;5072718;28;20285;-63
2023/03/21 08:55:29;;;;;;;5.47;4.00;;;12.50;99.90;;;-141.84;59.03;20000.81;5072891;28;20228;-63
2023/03/21 08:57:57;;;;;;;5.63;4.20;;;12.60;99.90;;;-141.84;58.45;20025.22;5072460;28;20224;-63
2023/03/21 09:00:26;;;;;;;6.80;4.32;;;12.70;99.90;;;-141.84;58.44;20023.19;5072862;28;20203;-63
2023/03/21 09:02:54;;;;;;;4.93;3.97;;;12.70;99.90;;;-141.84;57.04;20098.38;5072916;28;20223;-63
2023/03/21 09:05:24;;;;;;;6.20;4.05;;;12.90;99.90;;;-141.84;56.84;20071.97;5072669;28;20229;-62
2023/03/21 09:07:54;;;;;;;6.35;4.05;;;12.90;99.90;;;-141.84;56.91;20098.38;5072395;28;20264;-63
2023/03/21 09:10:23;;;;;;;6.65;4.13;;;12.90;99.90;;;-141.84;57.59;20094.31;5072652;28;20232;-62
2023/03/21 09:12:54;;;;;;;5.82;3.65;;;12.90;99.90;;;-141.84;56.79;20071.97;5072609;28;20226;-63
2023/03/21 09:15:27;;;;;;;6.35;4.22;;;12.90;99.90;;;-141.84;57.52;20041.47;5072592;28;20569;-63
2023/03/21 09:17:57;;;;;;;7.43;4.68;;;12.90;99.90;;;-141.84;58.56;20006.91;5073108;28;20189;-62
2023/03/21 09:20:31;;;;;;;6.88;4.30;;;12.70;99.90;;;-141.84;57.98;20049.59;5072260;28;20236;-62
2023/03/21 09:23:01;;;;;;;10.65;4.40;;;12.70;99.90;;;-141.84;57.58;20065.84;5051836;28;20225;-63
2023/03/21 09:25:31;;;;;;;6.32;3.95;;;12.90;99.90;;;-141.84;57.81;20096.34;5051724;28;20232;-62
2023/03/21 09:27:59;;;;;;;6.85;3.90;;;12.90;99.90;;;-141.84;57.15;20145.13;5052065;28;20217;-61
2023/03/21 09:30:30;;;;;;;5.30;4.45;;;13.10;99.90;;;-141.84;56.10;20155.28;5052085;28;20292;-62
2023/03/21 09:33:00;;;;;;;6.32;4.53;;;13.30;99.90;;;-141.84;55.92;20161.38;5052420;28;20178;-62
2023/03/21 09:35:29;;;;;;;6.95;4.57;;;13.40;99.90;;;-141.84;56.46;20132.94;5051487;28;20522;-62
2023/03/21 09:37:59;;;;;;;8.07;4.70;;;13.40;99.90;;;-141.84;57.26;20157.31;5051207;28;20236;-62
2023/03/21 09:40:58;;;;;;;7.97;4.50;;;13.50;99.90;;;-141.84;57.08;20159.34;5051314;28;20229;-63
2023/03/21 09:43:46;;;;;;;7.55;4.35;;;13.60;99.90;;;-141.84;56.26;20183.75;5052050;28;20283;-63
2023/03/21 09:46:28;;;;;;;7.15;4.32;;;13.70;99.90;;;-141.84;56.37;20155.28;5051555;28;20233;-62
2023/03/21 09:49:01;;;;;;;7.88;4.60;;;13.60;99.90;;;-141.84;56.38;20210.16;5051848;28;20244;-63
2023/03/21 09:51:39;;;;;;;6.15;4.00;;;13.70;99.90;;;-141.84;56.43;20232.53;5051882;28;20181;-63
2023/03/21 09:54:17;;;;;;;7.00;4.57;;;13.80;99.90;;;-141.84;55.80;20254.88;5051907;28;20212;-63
2023/03/21 09:56:51;;;;;;;8.18;5.10;;;14.00;99.90;;;-141.84;56.01;20236.59;5051506;28;20252;-62
2023/03/21 09:59:28;;;;;;;10.27;5.40;;;14.10;99.90;;;-141.84;54.62;20263.00;5051567;28;20317;-63
2023/03/21 10:02:00;;;;;;;7.35;4.70;;;14.20;99.90;;;-141.84;55.51;20250.81;5051347;28;20304;-62
2023/03/21 10:04:30;;;;;;;5.40;4.63;;;14.10;99.90;;;-141.84;55.15;20258.94;5046314;28;20355;-62
2023/03/21 10:07:02;;;;;;;5.70;4.65;;;14.20;99.90;;;-141.84;55.45;20267.09;5051151;28;20225;-62
2023/03/21 10:09:33;;;;;;;8.18;5.03;;;14.10;99.90;;;-141.84;55.35;20275.22;5047051;28;20673;-62
2023/03/21 10:12:13;;;;;;;7.47;4.70;;;14.20;99.90;;;-141.84;54.81;20287.41;5040666;28;20226;-63
2023/03/21 10:14:48;;;;;;;7.68;4.75;;;14.30;99.90;;;-141.84;55.01;20283.34;5031129;28;20673;-62
2023/03/21 10:17:28;;;;;;;7.40;4.90;;;14.40;99.90;;;-141.84;55.00;20324.00;5031198;28;20721;-63
2023/03/21 10:20:11;;;;;;;7.50;4.57;;;14.60;99.90;;;-141.84;54.63;20364.66;5031000;28;20739;-63
2023/03/21 10:22:40;;;;;;;6.90;4.97;;;14.60;99.90;;;-141.84;54.52;20358.56;5064500;28;20237;-63
2023/03/21 10:25:14;;;;;;;8.45;4.82;;;14.70;99.90;;;-141.84;54.97;20319.94;5070647;28;20236;-62
2023/03/21 10:27:45;;;;;;;5.10;4.38;;;14.70;99.90;;;-141.84;53.86;20401.22;5070968;28;20224;-63
2023/03/21 10:30:28;;;;;;;6.85;4.28;;;14.90;99.90;;;-141.84;53.42;20389.03;5071254;28;20207;-63
2023/03/21 10:33:01;;;;;;;7.97;4.60;;;15.00;99.90;;;-141.84;53.29;20494.75;5070886;28;20200;-63